sensor_id;sensor_type;location;lat;lon;timestamp;P1;durP1;ratioP1;P2;durP2;ratioP2
18505;SDS011;9382;53.242;10.438;2023-01-05T00:00:49;13.27;;;2.80;;
18505;SDS011;9382;53.242;10.438;2023-01-05T00:03:17;13.23;;;2.80;;
18505;SDS011;9382;53.242;10.438;2023-01-05T00:05:43;7.93;;;2.43;;
18505;SDS011;9382;53.242;10.438;2023-01-05T00:08:10;13.23;;;2.90;;
18505;SDS011;9382;53.242;10.438;2023-01-05T00:10:37;10.20;;;2.60;;
18505;SDS011;9382;53.242;10.438;2023-01-05T00:13:21;9.43;;;2.70;;
18505;SDS011;9382;53.242;10.438;2023-01-05T00:16:07;12.70;;;3.27;;
18505;SDS011;9382;53.242;10.438;2023-01-05T00:18:56;12.90;;;3.27;;
18505;SDS011;9382;53.242;10.438;2023-01-05T00:21:40;12.90;;;2.87;;
18505;SDS011;9382;53.242;10.438;2023-01-05T00:24:21;12.50;;;2.73;;
18505;SDS011;9382;53.242;10.438;2023-01-05T00:26:48;11.37;;;2.67;;
18505;SDS011;9382;53.242;10.438;2023-01-05T00:29:15;13.33;;;3.17;;
18505;SDS011;9382;53.242;10.438;2023-01-05T00:31:42;6.93;;;2.50;;
18505;SDS011;9382;53.242;10.438;2023-01-05T00:34:10;15.30;;;3.10;;
18505;SDS011;9382;53.242;10.438;2023-01-05T00:36:38;10.77;;;2.50;;
18505;SDS011;9382;53.242;10.438;2023-01-05T00:39:04;11.63;;;2.83;;
18505;SDS011;9382;53.242;10.438;2023-01-05T00:41:31;11.70;;;2.30;;
18505;SDS011;9382;53.242;10.438;2023-01-05T00:43:58;9.53;;;2.17;;
18505;SDS011;9382;53.242;10.438;2023-01-05T00:46:25;13.13;;;2.40;;
18505;SDS011;9382;53.242;10.438;2023-01-05T00:48:51;12.77;;;2.67;;
18505;SDS011;9382;53.242;10.438;2023-01-05T00:51:19;8.27;;;2.70;;
18505;SDS011;9382;53.242;10.438;2023-01-05T00:53:46;7.53;;;1.97;;
18505;SDS011;9382;53.242;10.438;2023-01-05T00:56:13;10.03;;;2.27;;
18505;SDS011;9382;53.242;10.438;2023-01-05T00:58:40;10.67;;;2.40;;
18505;SDS011;9382;53.242;10.438;2023-01-05T01:01:07;8.37;;;2.63;;
18505;SDS011;9382;53.242;10.438;2023-01-05T01:03:34;7.30;;;2.33;;
18505;SDS011;9382;53.242;10.438;2023-01-05T01:06:01;6.73;;;2.10;;
18505;SDS011;9382;53.242;10.438;2023-01-05T01:08:29;11.80;;;2.67;;
18505;SDS011;9382;53.242;10.438;2023-01-05T01:10:56;15.93;;;2.20;;
18505;SDS011;9382;53.242;10.438;2023-01-05T01:13:27;14.27;;;2.30;;
18505;SDS011;9382;53.242;10.438;2023-01-05T01:15:54;12.67;;;2.73;;
18505;SDS011;9382;53.242;10.438;2023-01-05T01:18:21;11.10;;;2.40;;
18505;SDS011;9382;53.242;10.438;2023-01-05T01:20:48;15.40;;;2.90;;
18505;SDS011;9382;53.242;10.438;2023-01-05T01:23:14;12.77;;;2.53;;
18505;SDS011;9382;53.242;10.438;2023-01-05T01:25:43;10.33;;;2.93;;
18505;SDS011;9382;53.242;10.438;2023-01-05T01:28:09;12.40;;;2.70;;
18505;SDS011;9382;53.242;10.438;2023-01-05T01:30:36;11.67;;;2.67;;
18505;SDS011;9382;53.242;10.438;2023-01-05T01:33:03;8.60;;;2.97;;
18505;SDS011;9382;53.242;10.438;2023-01-05T01:35:30;9.77;;;2.50;;
18505;SDS011;9382;53.242;10.438;2023-01-05T01:37:57;8.90;;;2.93;;
18505;SDS011;9382;53.242;10.438;2023-01-05T01:40:23;10.10;;;2.47;;
18505;SDS011;9382;53.242;10.438;2023-01-05T01:42:51;8.50;;;2.50;;
18505;SDS011;9382;53.242;10.438;2023-01-05T01:45:19;12.90;;;3.43;;
18505;SDS011;9382;53.242;10.438;2023-01-05T01:47:47;9.77;;;2.73;;
18505;SDS011;9382;53.242;10.438;2023-01-05T01:50:18;10.43;;;2.53;;
18505;SDS011;9382;53.242;10.438;2023-01-05T01:52:48;7.30;;;2.17;;
18505;SDS011;9382;53.242;10.438;2023-01-05T01:55:17;9.67;;;1.97;;
18505;SDS011;9382;53.242;10.438;2023-01-05T01:57:45;8.37;;;2.20;;
18505;SDS011;9382;53.242;10.438;2023-01-05T02:00:15;11.00;;;2.57;;
18505;SDS011;9382;53.242;10.438;2023-01-05T02:02:44;7.30;;;2.27;;
18505;SDS011;9382;53.242;10.438;2023-01-05T02:05:12;8.83;;;2.13;;
18505;SDS011;9382;53.242;10.438;2023-01-05T02:07:43;8.93;;;2.13;;
18505;SDS011;9382;53.242;10.438;2023-01-05T02:10:11;12.33;;;2.63;;
18505;SDS011;9382;53.242;10.438;2023-01-05T02:12:43;12.50;;;2.60;;
18505;SDS011;9382;53.242;10.438;2023-01-05T02:15:26;7.73;;;3.07;;
18505;SDS011;9382;53.242;10.438;2023-01-05T02:18:04;8.43;;;2.37;;
18505;SDS011;9382;53.242;10.438;2023-01-05T02:20:48;7.93;;;2.40;;
18505;SDS011;9382;53.242;10.438;2023-01-05T02:23:32;7.80;;;2.00;;
18505;SDS011;9382;53.242;10.438;2023-01-05T02:32:43;6.50;;;1.73;;
18505;SDS011;9382;53.242;10.438;2023-01-05T02:35:21;4.83;;;1.97;;
18505;SDS011;9382;53.242;10.438;2023-01-05T02:37:55;4.70;;;1.40;;
18505;SDS011;9382;53.242;10.438;2023-01-05T02:40:28;5.80;;;1.67;;
18505;SDS011;9382;53.242;10.438;2023-01-05T02:42:57;3.57;;;1.40;;
18505;SDS011;9382;53.242;10.438;2023-01-05T02:45:27;3.57;;;1.50;;
18505;SDS011;9382;53.242;10.438;2023-01-05T02:47:55;9.67;;;2.33;;
18505;SDS011;9382;53.242;10.438;2023-01-05T02:50:23;5.70;;;2.00;;
18505;SDS011;9382;53.242;10.438;2023-01-05T02:52:55;6.37;;;1.80;;
18505;SDS011;9382;53.242;10.438;2023-01-05T02:55:25;5.20;;;1.40;;
18505;SDS011;9382;53.242;10.438;2023-01-05T02:57:58;4.37;;;1.60;;
18505;SDS011;9382;53.242;10.438;2023-01-05T03:00:29;6.77;;;1.80;;
18505;SDS011;9382;53.242;10.438;2023-01-05T03:03:03;9.00;;;2.60;;
18505;SDS011;9382;53.242;10.438;2023-01-05T03:05:34;7.27;;;2.13;;
18505;SDS011;9382;53.242;10.438;2023-01-05T03:08:04;13.43;;;2.73;;
18505;SDS011;9382;53.242;10.438;2023-01-05T03:10:33;8.37;;;2.63;;
18505;SDS011;9382;53.242;10.438;2023-01-05T03:13:24;8.17;;;1.90;;
18505;SDS011;9382;53.242;10.438;2023-01-05T03:16:09;9.90;;;2.50;;
18505;SDS011;9382;53.242;10.438;2023-01-05T03:18:42;4.13;;;1.80;;
18505;SDS011;9382;53.242;10.438;2023-01-05T03:21:27;7.60;;;2.10;;
18505;SDS011;9382;53.242;10.438;2023-01-05T03:24:05;4.37;;;1.60;;
18505;SDS011;9382;53.242;10.438;2023-01-05T03:26:49;5.37;;;1.77;;
18505;SDS011;9382;53.242;10.438;2023-01-05T03:29:34;3.10;;;1.43;;
18505;SDS011;9382;53.242;10.438;2023-01-05T03:32:19;4.60;;;1.60;;
18505;SDS011;9382;53.242;10.438;2023-01-05T03:35:10;4.47;;;1.73;;
18505;SDS011;9382;53.242;10.438;2023-01-05T03:37:58;3.67;;;1.30;;
18505;SDS011;9382;53.242;10.438;2023-01-05T03:40:30;4.73;;;1.33;;
18505;SDS011;9382;53.242;10.438;2023-01-05T03:42:58;3.33;;;1.30;;
18505;SDS011;9382;53.242;10.438;2023-01-05T03:45:30;2.80;;;1.33;;
18505;SDS011;9382;53.242;10.438;2023-01-05T03:47:59;4.80;;;1.50;;
18505;SDS011;9382;53.242;10.438;2023-01-05T03:50:27;2.93;;;1.30;;
18505;SDS011;9382;53.242;10.438;2023-01-05T03:52:54;5.37;;;1.57;;
18505;SDS011;9382;53.242;10.438;2023-01-05T03:55:21;2.50;;;1.33;;
18505;SDS011;9382;53.242;10.438;2023-01-05T03:57:47;4.83;;;1.40;;
18505;SDS011;9382;53.242;10.438;2023-01-05T04:00:14;5.67;;;1.77;;
18505;SDS011;9382;53.242;10.438;2023-01-05T04:02:41;2.53;;;1.30;;
18505;SDS011;9382;53.242;10.438;2023-01-05T04:05:08;5.00;;;1.90;;
18505;SDS011;9382;53.242;10.438;2023-01-05T04:07:36;4.43;;;1.53;;
18505;SDS011;9382;53.242;10.438;2023-01-05T04:10:03;4.27;;;1.57;;
18505;SDS011;9382;53.242;10.438;2023-01-05T04:12:31;2.57;;;1.13;;
18505;SDS011;9382;53.242;10.438;2023-01-05T04:14:57;4.47;;;1.30;;
18505;SDS011;9382;53.242;10.438;2023-01-05T04:17:24;3.73;;;1.10;;
18505;SDS011;9382;53.242;10.438;2023-01-05T04:19:51;2.30;;;1.10;;
18505;SDS011;9382;53.242;10.438;2023-01-05T04:22:18;0.90;;;0.90;;
18505;SDS011;9382;53.242;10.438;2023-01-05T04:24:46;1.80;;;0.90;;
18505;SDS011;9382;53.242;10.438;2023-01-05T04:27:12;1.27;;;1.00;;
18505;SDS011;9382;53.242;10.438;2023-01-05T04:29:39;1.00;;;1.00;;
18505;SDS011;9382;53.242;10.438;2023-01-05T04:32:06;1.87;;;0.90;;
18505;SDS011;9382;53.242;10.438;2023-01-05T04:34:32;1.07;;;1.00;;
18505;SDS011;9382;53.242;10.438;2023-01-05T04:36:59;1.63;;;1.10;;
18505;SDS011;9382;53.242;10.438;2023-01-05T04:39:26;2.10;;;0.80;;
18505;SDS011;9382;53.242;10.438;2023-01-05T04:41:54;0.80;;;0.80;;
18505;SDS011;9382;53.242;10.438;2023-01-05T04:44:21;1.00;;;0.90;;
18505;SDS011;9382;53.242;10.438;2023-01-05T04:46:48;2.67;;;1.07;;
18505;SDS011;9382;53.242;10.438;2023-01-05T04:49:14;0.77;;;0.77;;
18505;SDS011;9382;53.242;10.438;2023-01-05T04:51:41;3.03;;;1.00;;
18505;SDS011;9382;53.242;10.438;2023-01-05T04:54:08;2.40;;;0.80;;
18505;SDS011;9382;53.242;10.438;2023-01-05T04:56:35;1.27;;;0.90;;
18505;SDS011;9382;53.242;10.438;2023-01-05T04:59:03;1.73;;;0.90;;
18505;SDS011;9382;53.242;10.438;2023-01-05T05:01:29;1.30;;;0.97;;
18505;SDS011;9382;53.242;10.438;2023-01-05T05:03:56;1.30;;;1.10;;
18505;SDS011;9382;53.242;10.438;2023-01-05T05:06:23;2.07;;;1.10;;
18505;SDS011;9382;53.242;10.438;2023-01-05T05:08:50;1.83;;;1.00;;
18505;SDS011;9382;53.242;10.438;2023-01-05T05:11:16;2.20;;;1.00;;
18505;SDS011;9382;53.242;10.438;2023-01-05T05:13:43;2.13;;;1.03;;
18505;SDS011;9382;53.242;10.438;2023-01-05T05:16:11;3.20;;;1.00;;
18505;SDS011;9382;53.242;10.438;2023-01-05T05:18:38;1.80;;;0.93;;
18505;SDS011;9382;53.242;10.438;2023-01-05T05:21:05;2.33;;;1.00;;
18505;SDS011;9382;53.242;10.438;2023-01-05T05:23:31;1.23;;;1.00;;
18505;SDS011;9382;53.242;10.438;2023-01-05T05:25:58;2.37;;;1.10;;
18505;SDS011;9382;53.242;10.438;2023-01-05T05:28:25;3.47;;;1.00;;
18505;SDS011;9382;53.242;10.438;2023-01-05T05:30:52;1.43;;;0.90;;
18505;SDS011;9382;53.242;10.438;2023-01-05T05:33:21;4.73;;;1.63;;
18505;SDS011;9382;53.242;10.438;2023-01-05T05:35:48;1.40;;;1.30;;
18505;SDS011;9382;53.242;10.438;2023-01-05T05:38:15;2.20;;;1.10;;
18505;SDS011;9382;53.242;10.438;2023-01-05T05:40:41;2.07;;;1.03;;
18505;SDS011;9382;53.242;10.438;2023-01-05T05:43:08;2.30;;;1.07;;
18505;SDS011;9382;53.242;10.438;2023-01-05T05:45:35;1.10;;;1.00;;
18505;SDS011;9382;53.242;10.438;2023-01-05T05:48:02;1.83;;;1.00;;
18505;SDS011;9382;53.242;10.438;2023-01-05T05:50:31;1.90;;;1.00;;
18505;SDS011;9382;53.242;10.438;2023-01-05T05:52:58;4.03;;;1.17;;
18505;SDS011;9382;53.242;10.438;2023-01-05T05:55:25;1.50;;;1.10;;
18505;SDS011;9382;53.242;10.438;2023-01-05T05:57:51;2.07;;;1.00;;
18505;SDS011;9382;53.242;10.438;2023-01-05T06:00:18;3.73;;;1.20;;
18505;SDS011;9382;53.242;10.438;2023-01-05T06:02:45;2.00;;;1.10;;
18505;SDS011;9382;53.242;10.438;2023-01-05T06:05:12;2.17;;;1.40;;
18505;SDS011;9382;53.242;10.438;2023-01-05T06:07:40;1.50;;;1.30;;
18505;SDS011;9382;53.242;10.438;2023-01-05T06:10:07;3.60;;;1.73;;
18505;SDS011;9382;53.242;10.438;2023-01-05T06:12:34;3.30;;;1.40;;
18505;SDS011;9382;53.242;10.438;2023-01-05T06:15:01;4.87;;;1.40;;
18505;SDS011;9382;53.242;10.438;2023-01-05T06:17:27;2.50;;;1.30;;
18505;SDS011;9382;53.242;10.438;2023-01-05T06:19:54;2.27;;;1.40;;
18505;SDS011;9382;53.242;10.438;2023-01-05T06:22:21;2.37;;;1.50;;
18505;SDS011;9382;53.242;10.438;2023-01-05T06:24:49;2.80;;;1.30;;
18505;SDS011;9382;53.242;10.438;2023-01-05T06:27:16;3.77;;;1.40;;
18505;SDS011;9382;53.242;10.438;2023-01-05T06:29:43;1.97;;;1.53;;
18505;SDS011;9382;53.242;10.438;2023-01-05T06:32:09;3.67;;;1.40;;
18505;SDS011;9382;53.242;10.438;2023-01-05T06:34:36;3.83;;;1.27;;
18505;SDS011;9382;53.242;10.438;2023-01-05T06:37:03;2.23;;;1.50;;
18505;SDS011;9382;53.242;10.438;2023-01-05T06:39:30;5.00;;;1.93;;
18505;SDS011;9382;53.242;10.438;2023-01-05T06:41:58;6.33;;;1.70;;
18505;SDS011;9382;53.242;10.438;2023-01-05T06:44:25;3.30;;;1.90;;
18505;SDS011;9382;53.242;10.438;2023-01-05T06:46:52;5.43;;;1.90;;
18505;SDS011;9382;53.242;10.438;2023-01-05T06:49:18;3.77;;;1.50;;
18505;SDS011;9382;53.242;10.438;2023-01-05T06:51:45;3.50;;;1.80;;
18505;SDS011;9382;53.242;10.438;2023-01-05T06:54:12;4.43;;;1.63;;
18505;SDS011;9382;53.242;10.438;2023-01-05T06:56:39;4.07;;;1.50;;
18505;SDS011;9382;53.242;10.438;2023-01-05T06:59:07;4.70;;;1.50;;
18505;SDS011;9382;53.242;10.438;2023-01-05T07:01:33;4.20;;;1.53;;
18505;SDS011;9382;53.242;10.438;2023-01-05T07:04:00;8.30;;;1.77;;
18505;SDS011;9382;53.242;10.438;2023-01-05T07:06:27;9.00;;;1.40;;
18505;SDS011;9382;53.242;10.438;2023-01-05T07:08:54;5.17;;;1.60;;
18505;SDS011;9382;53.242;10.438;2023-01-05T07:11:20;3.43;;;1.57;;
18505;SDS011;9382;53.242;10.438;2023-01-05T07:13:48;4.20;;;1.53;;
18505;SDS011;9382;53.242;10.438;2023-01-05T07:16:17;7.70;;;1.70;;
18505;SDS011;9382;53.242;10.438;2023-01-05T07:18:44;7.70;;;1.67;;
18505;SDS011;9382;53.242;10.438;2023-01-05T07:21:10;4.83;;;1.87;;
18505;SDS011;9382;53.242;10.438;2023-01-05T07:23:37;8.00;;;1.60;;
18505;SDS011;9382;53.242;10.438;2023-01-05T07:26:04;6.30;;;1.60;;
18505;SDS011;9382;53.242;10.438;2023-01-05T07:28:32;4.27;;;1.50;;
18505;SDS011;9382;53.242;10.438;2023-01-05T07:30:59;8.13;;;1.67;;
18505;SDS011;9382;53.242;10.438;2023-01-05T07:33:27;5.60;;;1.90;;
18505;SDS011;9382;53.242;10.438;2023-01-05T07:35:53;6.50;;;1.80;;
18505;SDS011;9382;53.242;10.438;2023-01-05T07:38:20;7.37;;;1.80;;
18505;SDS011;9382;53.242;10.438;2023-01-05T07:40:47;11.00;;;2.50;;
18505;SDS011;9382;53.242;10.438;2023-01-05T07:43:14;8.63;;;1.80;;
18505;SDS011;9382;53.242;10.438;2023-01-05T07:45:41;5.10;;;1.87;;
18505;SDS011;9382;53.242;10.438;2023-01-05T07:48:08;9.53;;;1.80;;
18505;SDS011;9382;53.242;10.438;2023-01-05T07:50:36;8.90;;;1.83;;
18505;SDS011;9382;53.242;10.438;2023-01-05T07:53:02;6.93;;;2.00;;
18505;SDS011;9382;53.242;10.438;2023-01-05T07:55:29;8.33;;;1.70;;
18505;SDS011;9382;53.242;10.438;2023-01-05T07:57:56;10.93;;;2.43;;
18505;SDS011;9382;53.242;10.438;2023-01-05T08:00:23;9.37;;;2.43;;
18505;SDS011;9382;53.242;10.438;2023-01-05T08:02:49;5.13;;;2.03;;
18505;SDS011;9382;53.242;10.438;2023-01-05T08:05:16;6.90;;;1.90;;
18505;SDS011;9382;53.242;10.438;2023-01-05T08:07:44;6.83;;;1.90;;
18505;SDS011;9382;53.242;10.438;2023-01-05T08:10:11;12.83;;;2.30;;
18505;SDS011;9382;53.242;10.438;2023-01-05T08:13:02;11.03;;;2.23;;
18505;SDS011;9382;53.242;10.438;2023-01-05T08:15:47;10.53;;;2.50;;
18505;SDS011;9382;53.242;10.438;2023-01-05T08:18:15;9.10;;;1.67;;
18505;SDS011;9382;53.242;10.438;2023-01-05T08:20:41;8.10;;;1.97;;
18505;SDS011;9382;53.242;10.438;2023-01-05T08:23:10;9.30;;;2.27;;
18505;SDS011;9382;53.242;10.438;2023-01-05T08:25:36;9.63;;;2.00;;
18505;SDS011;9382;53.242;10.438;2023-01-05T08:28:03;8.00;;;2.03;;
18505;SDS011;9382;53.242;10.438;2023-01-05T08:30:30;9.83;;;2.43;;
18505;SDS011;9382;53.242;10.438;2023-01-05T08:32:57;10.77;;;2.20;;
18505;SDS011;9382;53.242;10.438;2023-01-05T08:35:23;12.13;;;2.33;;
18505;SDS011;9382;53.242;10.438;2023-01-05T08:37:50;9.67;;;2.30;;
18505;SDS011;9382;53.242;10.438;2023-01-05T08:40:18;7.07;;;1.80;;
18505;SDS011;9382;53.242;10.438;2023-01-05T08:42:45;8.23;;;2.30;;
18505;SDS011;9382;53.242;10.438;2023-01-05T08:45:12;9.13;;;2.10;;
18505;SDS011;9382;53.242;10.438;2023-01-05T08:47:40;11.33;;;2.00;;
18505;SDS011;9382;53.242;10.438;2023-01-05T08:50:07;10.10;;;2.50;;
18505;SDS011;9382;53.242;10.438;2023-01-05T08:52:34;15.00;;;2.37;;
18505;SDS011;9382;53.242;10.438;2023-01-05T08:55:01;10.00;;;1.97;;
18505;SDS011;9382;53.242;10.438;2023-01-05T08:57:30;7.20;;;2.37;;
18505;SDS011;9382;53.242;10.438;2023-01-05T08:59:57;7.00;;;1.93;;
18505;SDS011;9382;53.242;10.438;2023-01-05T09:02:23;12.10;;;2.43;;
18505;SDS011;9382;53.242;10.438;2023-01-05T09:04:50;10.67;;;2.57;;
18505;SDS011;9382;53.242;10.438;2023-01-05T09:07:17;14.90;;;2.73;;
18505;SDS011;9382;53.242;10.438;2023-01-05T09:09:44;11.60;;;1.90;;
18505;SDS011;9382;53.242;10.438;2023-01-05T09:12:11;9.27;;;2.90;;
18505;SDS011;9382;53.242;10.438;2023-01-05T09:14:39;14.17;;;2.10;;
18505;SDS011;9382;53.242;10.438;2023-01-05T09:17:06;10.50;;;1.90;;
18505;SDS011;9382;53.242;10.438;2023-01-05T09:19:32;12.43;;;2.30;;
18505;SDS011;9382;53.242;10.438;2023-01-05T09:21:59;8.80;;;2.27;;
18505;SDS011;9382;53.242;10.438;2023-01-05T09:24:26;7.70;;;1.83;;
18505;SDS011;9382;53.242;10.438;2023-01-05T09:26:53;9.13;;;2.20;;
18505;SDS011;9382;53.242;10.438;2023-01-05T09:29:20;8.80;;;2.43;;
18505;SDS011;9382;53.242;10.438;2023-01-05T09:31:48;11.20;;;2.40;;
18505;SDS011;9382;53.242;10.438;2023-01-05T09:34:15;7.87;;;2.30;;
18505;SDS011;9382;53.242;10.438;2023-01-05T09:36:43;10.93;;;2.57;;
18505;SDS011;9382;53.242;10.438;2023-01-05T09:39:09;15.77;;;2.10;;
18505;SDS011;9382;53.242;10.438;2023-01-05T09:41:37;11.33;;;2.10;;
18505;SDS011;9382;53.242;10.438;2023-01-05T09:44:10;9.30;;;2.30;;
18505;SDS011;9382;53.242;10.438;2023-01-05T09:46:41;12.13;;;2.27;;
18505;SDS011;9382;53.242;10.438;2023-01-05T09:49:13;7.37;;;2.30;;
18505;SDS011;9382;53.242;10.438;2023-01-05T09:51:42;9.23;;;2.30;;
18505;SDS011;9382;53.242;10.438;2023-01-05T09:54:11;9.33;;;2.10;;
18505;SDS011;9382;53.242;10.438;2023-01-05T09:56:42;9.57;;;2.50;;
18505;SDS011;9382;53.242;10.438;2023-01-05T09:59:11;10.27;;;2.30;;
18505;SDS011;9382;53.242;10.438;2023-01-05T10:01:40;15.10;;;2.43;;
18505;SDS011;9382;53.242;10.438;2023-01-05T10:04:09;10.83;;;2.40;;
18505;SDS011;9382;53.242;10.438;2023-01-05T10:06:41;15.67;;;2.37;;
18505;SDS011;9382;53.242;10.438;2023-01-05T10:09:12;11.27;;;2.50;;
18505;SDS011;9382;53.242;10.438;2023-01-05T10:11:43;11.27;;;2.17;;
18505;SDS011;9382;53.242;10.438;2023-01-05T10:14:34;11.90;;;2.37;;
18505;SDS011;9382;53.242;10.438;2023-01-05T10:17:07;13.30;;;3.03;;
18505;SDS011;9382;53.242;10.438;2023-01-05T10:19:39;8.13;;;2.07;;
18505;SDS011;9382;53.242;10.438;2023-01-05T10:22:09;11.10;;;2.47;;
18505;SDS011;9382;53.242;10.438;2023-01-05T10:24:51;14.27;;;2.20;;
18505;SDS011;9382;53.242;10.438;2023-01-05T10:27:23;14.30;;;2.57;;
18505;SDS011;9382;53.242;10.438;2023-01-05T10:29:53;9.53;;;2.30;;
18505;SDS011;9382;53.242;10.438;2023-01-05T10:32:29;14.47;;;2.40;;
18505;SDS011;9382;53.242;10.438;2023-01-05T10:35:11;11.50;;;2.30;;
18505;SDS011;9382;53.242;10.438;2023-01-05T10:37:54;12.47;;;2.60;;
18505;SDS011;9382;53.242;10.438;2023-01-05T10:40:34;14.63;;;2.93;;
18505;SDS011;9382;53.242;10.438;2023-01-05T10:46:08;11.93;;;2.60;;
18505;SDS011;9382;53.242;10.438;2023-01-05T10:48:36;8.93;;;2.27;;
18505;SDS011;9382;53.242;10.438;2023-01-05T10:51:05;8.47;;;2.27;;
18505;SDS011;9382;53.242;10.438;2023-01-05T10:53:34;11.77;;;2.37;;
18505;SDS011;9382;53.242;10.438;2023-01-05T10:56:03;10.13;;;2.30;;
18505;SDS011;9382;53.242;10.438;2023-01-05T10:58:32;11.37;;;2.50;;
18505;SDS011;9382;53.242;10.438;2023-01-05T11:01:01;11.83;;;2.40;;
18505;SDS011;9382;53.242;10.438;2023-01-05T11:03:34;9.13;;;2.10;;
18505;SDS011;9382;53.242;10.438;2023-01-05T11:06:06;13.47;;;2.73;;
18505;SDS011;9382;53.242;10.438;2023-01-05T11:08:34;9.80;;;1.93;;
18505;SDS011;9382;53.242;10.438;2023-01-05T11:11:02;8.20;;;2.30;;
18505;SDS011;9382;53.242;10.438;2023-01-05T11:13:31;7.03;;;1.90;;
18505;SDS011;9382;53.242;10.438;2023-01-05T11:16:09;10.83;;;1.90;;
18505;SDS011;9382;53.242;10.438;2023-01-05T11:18:41;6.10;;;2.20;;
18505;SDS011;9382;53.242;10.438;2023-01-05T11:21:16;11.47;;;2.37;;
18505;SDS011;9382;53.242;10.438;2023-01-05T11:23:44;7.93;;;2.00;;
18505;SDS011;9382;53.242;10.438;2023-01-05T11:26:19;7.83;;;2.00;;
18505;SDS011;9382;53.242;10.438;2023-01-05T11:28:57;7.97;;;1.70;;
18505;SDS011;9382;53.242;10.438;2023-01-05T11:31:26;10.63;;;2.23;;
18505;SDS011;9382;53.242;10.438;2023-01-05T11:33:57;10.73;;;2.03;;
18505;SDS011;9382;53.242;10.438;2023-01-05T11:36:33;7.87;;;2.27;;
18505;SDS011;9382;53.242;10.438;2023-01-05T11:39:00;10.83;;;2.00;;
18505;SDS011;9382;53.242;10.438;2023-01-05T11:41:27;10.03;;;2.10;;
18505;SDS011;9382;53.242;10.438;2023-01-05T11:43:54;11.43;;;2.13;;
18505;SDS011;9382;53.242;10.438;2023-01-05T11:46:24;11.47;;;2.43;;
18505;SDS011;9382;53.242;10.438;2023-01-05T11:49:04;15.27;;;2.50;;
18505;SDS011;9382;53.242;10.438;2023-01-05T11:51:32;12.13;;;3.03;;
18505;SDS011;9382;53.242;10.438;2023-01-05T11:54:01;12.73;;;2.67;;
18505;SDS011;9382;53.242;10.438;2023-01-05T11:56:28;16.93;;;3.00;;
18505;SDS011;9382;53.242;10.438;2023-01-05T11:58:55;7.60;;;2.33;;
18505;SDS011;9382;53.242;10.438;2023-01-05T12:04:21;10.73;;;2.67;;
18505;SDS011;9382;53.242;10.438;2023-01-05T12:07:02;14.13;;;3.17;;
18505;SDS011;9382;53.242;10.438;2023-01-05T12:09:37;7.10;;;2.17;;
18505;SDS011;9382;53.242;10.438;2023-01-05T12:15:13;12.03;;;2.90;;
18505;SDS011;9382;53.242;10.438;2023-01-05T12:18:20;17.03;;;3.00;;
18505;SDS011;9382;53.242;10.438;2023-01-05T12:21:06;13.13;;;2.60;;
18505;SDS011;9382;53.242;10.438;2023-01-05T12:26:34;12.03;;;2.77;;
18505;SDS011;9382;53.242;10.438;2023-01-05T12:32:15;9.30;;;2.27;;
18505;SDS011;9382;53.242;10.438;2023-01-05T12:34:57;13.63;;;2.37;;
18505;SDS011;9382;53.242;10.438;2023-01-05T12:37:51;13.43;;;2.17;;
18505;SDS011;9382;53.242;10.438;2023-01-05T12:40:34;11.40;;;2.77;;
18505;SDS011;9382;53.242;10.438;2023-01-05T12:43:09;14.17;;;3.00;;
18505;SDS011;9382;53.242;10.438;2023-01-05T12:45:51;14.57;;;2.90;;
18505;SDS011;9382;53.242;10.438;2023-01-05T12:48:29;8.43;;;2.40;;
18505;SDS011;9382;53.242;10.438;2023-01-05T12:51:02;7.73;;;2.23;;
18505;SDS011;9382;53.242;10.438;2023-01-05T12:53:37;12.90;;;3.13;;
18505;SDS011;9382;53.242;10.438;2023-01-05T12:56:16;22.67;;;3.27;;
18505;SDS011;9382;53.242;10.438;2023-01-05T12:58:49;11.97;;;2.30;;
18505;SDS011;9382;53.242;10.438;2023-01-05T13:01:27;11.90;;;2.23;;
18505;SDS011;9382;53.242;10.438;2023-01-05T13:03:58;18.90;;;2.83;;
18505;SDS011;9382;53.242;10.438;2023-01-05T13:06:30;16.50;;;3.03;;
18505;SDS011;9382;53.242;10.438;2023-01-05T13:09:02;20.40;;;2.53;;
18505;SDS011;9382;53.242;10.438;2023-01-05T13:11:33;17.30;;;3.57;;
18505;SDS011;9382;53.242;10.438;2023-01-05T13:14:04;19.10;;;3.63;;
18505;SDS011;9382;53.242;10.438;2023-01-05T13:16:36;19.27;;;3.63;;
18505;SDS011;9382;53.242;10.438;2023-01-05T13:19:08;13.97;;;3.30;;
18505;SDS011;9382;53.242;10.438;2023-01-05T13:21:41;13.97;;;2.30;;
18505;SDS011;9382;53.242;10.438;2023-01-05T13:24:10;14.07;;;2.50;;
18505;SDS011;9382;53.242;10.438;2023-01-05T13:26:46;18.07;;;3.40;;
18505;SDS011;9382;53.242;10.438;2023-01-05T13:29:14;18.40;;;3.03;;
18505;SDS011;9382;53.242;10.438;2023-01-05T13:32:04;21.00;;;4.07;;
18505;SDS011;9382;53.242;10.438;2023-01-05T13:34:54;18.70;;;3.87;;
18505;SDS011;9382;53.242;10.438;2023-01-05T13:40:38;13.87;;;2.73;;
18505;SDS011;9382;53.242;10.438;2023-01-05T13:43:33;13.50;;;3.17;;
18505;SDS011;9382;53.242;10.438;2023-01-05T13:52:06;10.77;;;3.00;;
18505;SDS011;9382;53.242;10.438;2023-01-05T13:54:43;9.90;;;2.30;;
18505;SDS011;9382;53.242;10.438;2023-01-05T13:57:13;12.70;;;2.50;;
18505;SDS011;9382;53.242;10.438;2023-01-05T13:59:43;6.93;;;2.40;;
18505;SDS011;9382;53.242;10.438;2023-01-05T14:02:23;11.17;;;2.17;;
18505;SDS011;9382;53.242;10.438;2023-01-05T14:04:54;9.57;;;2.30;;
18505;SDS011;9382;53.242;10.438;2023-01-05T14:07:22;12.17;;;2.43;;
18505;SDS011;9382;53.242;10.438;2023-01-05T14:09:50;13.10;;;2.80;;
18505;SDS011;9382;53.242;10.438;2023-01-05T14:18:01;6.60;;;2.70;;
18505;SDS011;9382;53.242;10.438;2023-01-05T14:20:39;8.70;;;2.40;;
18505;SDS011;9382;53.242;10.438;2023-01-05T14:26:14;9.50;;;2.57;;
18505;SDS011;9382;53.242;10.438;2023-01-05T14:28:42;9.80;;;3.17;;
18505;SDS011;9382;53.242;10.438;2023-01-05T14:34:17;9.53;;;2.90;;
18505;SDS011;9382;53.242;10.438;2023-01-05T14:37:00;11.70;;;2.40;;
18505;SDS011;9382;53.242;10.438;2023-01-05T14:39:33;12.93;;;2.73;;
18505;SDS011;9382;53.242;10.438;2023-01-05T14:42:07;11.60;;;2.37;;
18505;SDS011;9382;53.242;10.438;2023-01-05T14:44:44;7.70;;;2.20;;
18505;SDS011;9382;53.242;10.438;2023-01-05T14:47:15;9.63;;;2.27;;
18505;SDS011;9382;53.242;10.438;2023-01-05T14:49:56;12.70;;;2.97;;
18505;SDS011;9382;53.242;10.438;2023-01-05T14:55:20;9.77;;;3.33;;
18505;SDS011;9382;53.242;10.438;2023-01-05T14:57:50;12.87;;;3.47;;
18505;SDS011;9382;53.242;10.438;2023-01-05T15:00:20;14.13;;;2.77;;
18505;SDS011;9382;53.242;10.438;2023-01-05T15:03:03;13.80;;;3.53;;
18505;SDS011;9382;53.242;10.438;2023-01-05T15:05:44;15.70;;;3.27;;
18505;SDS011;9382;53.242;10.438;2023-01-05T15:08:19;12.77;;;3.03;;
18505;SDS011;9382;53.242;10.438;2023-01-05T15:11:00;14.00;;;3.57;;
18505;SDS011;9382;53.242;10.438;2023-01-05T15:13:49;11.80;;;2.90;;
18505;SDS011;9382;53.242;10.438;2023-01-05T15:20:02;6.60;;;2.33;;
18505;SDS011;9382;53.242;10.438;2023-01-05T15:22:54;10.07;;;2.40;;
18505;SDS011;9382;53.242;10.438;2023-01-05T15:28:37;14.03;;;3.00;;
18505;SDS011;9382;53.242;10.438;2023-01-05T15:34:11;12.60;;;2.70;;
18505;SDS011;9382;53.242;10.438;2023-01-05T15:36:45;13.77;;;3.10;;
18505;SDS011;9382;53.242;10.438;2023-01-05T15:39:29;12.37;;;3.40;;
18505;SDS011;9382;53.242;10.438;2023-01-05T15:41:58;12.37;;;3.13;;
18505;SDS011;9382;53.242;10.438;2023-01-05T15:44:31;9.73;;;2.80;;
18505;SDS011;9382;53.242;10.438;2023-01-05T15:47:00;12.47;;;3.27;;
18505;SDS011;9382;53.242;10.438;2023-01-05T15:49:29;7.50;;;2.60;;
18505;SDS011;9382;53.242;10.438;2023-01-05T15:51:59;16.23;;;2.77;;
18505;SDS011;9382;53.242;10.438;2023-01-05T15:54:27;9.03;;;3.10;;
18505;SDS011;9382;53.242;10.438;2023-01-05T15:56:56;10.27;;;2.53;;
18505;SDS011;9382;53.242;10.438;2023-01-05T15:59:26;16.73;;;3.53;;